Time;durP1;ratioP1;P1;durP2;ratioP2;P2;SDS_P1;SDS_P2;PMS_P1;PMS_P2;Temp;Humidity;BMP_temperature;BMP_pressure;BME280_temperature;BME280_humidity;BME280_pressure;Samples;Min_cycle;Max_cycle;Signal;HPM_P1;HPM_P2
2021/10/19 00:00:05;;;;;;;;;;;;;;;;;;5113774;28;19934;-73
2021/10/19 00:02:31;;;;;;;;;;;;;;;;;;5113571;28;20329;-73
2021/10/19 00:04:58;;;;;;;;;;;;;;;;;;5113960;28;20000;-73
2021/10/19 00:07:24;;;;;;;;;;;;;;;;;;5112858;28;20377;-73
2021/10/19 00:09:50;;;;;;;;;;;;;;;;;;5113279;28;19924;-72
2021/10/19 00:12:16;;;;;;;;;;;;;;;;;;5113253;28;20029;-74
2021/10/19 00:14:43;;;;;;;;;;;;;;;;;;5113315;28;19930;-72
2021/10/19 00:17:09;;;;;;;;;;;;;;;;;;5113071;28;19952;-72
2021/10/19 00:19:37;;;;;;;;;;;;;;;;;;5113209;28;20271;-72
2021/10/19 00:22:03;;;;;;;;;;;;;;;;;;5112932;28;19936;-72
2021/10/19 00:24:30;;;;;;;;;;;;;;;;;;5113121;28;19924;-72
2021/10/19 00:26:56;;;;;;;;;;;;;;;;;;5112122;28;20296;-72
2021/10/19 00:29:22;;;;;;;;;;;;;;;;;;5112899;28;19931;-73
2021/10/19 00:31:50;;;;;;;;;;;;;;;;;;5113150;28;19923;-72
2021/10/19 00:34:16;;;;;;;;;;;;;;;;;;5113058;28;19931;-72
2021/10/19 00:36:42;;;;;;;;;;;;;;;;;;5112921;28;20382;-72
2021/10/19 00:39:08;;;;;;;;;;;;;;;;;;5112481;28;19923;-72
2021/10/19 00:41:35;;;;;;;;;;;;;;;;;;5113118;28;19930;-72
2021/10/19 00:44:01;;;;;;;;;;;;;;;;;;5112841;28;19928;-72
2021/10/19 00:46:27;;;;;;;;;;;;;;;;;;5112770;28;19924;-72
2021/10/19 00:48:54;;;;;;;;;;;;;;;;;;5112796;28;20362;-72
2021/10/19 00:51:20;;;;;;;;;;;;;;;;;;5112706;28;19930;-72
2021/10/19 00:53:46;;;;;;;;;;;;;;;;;;5112981;28;19924;-73
2021/10/19 00:56:13;;;;;;;;;;;;;;;;;;5112318;28;20380;-72
2021/10/19 00:58:39;;;;;;;;;;;;;;;;;;5112454;28;19923;-72
2021/10/19 01:01:05;;;;;;;;;;;;;;;;;;5112732;28;19928;-72
2021/10/19 01:03:31;;;;;;;;;;;;;;;;;;5112640;28;19966;-72
2021/10/19 01:05:58;;;;;;;;;;;;;;;;;;5112885;28;19923;-72
2021/10/19 01:08:24;;;;;;;;;;;;;;;;;;5112412;28;19931;-72
2021/10/19 01:10:50;;;;;;;;;;;;;;;;;;5112870;28;19923;-72
2021/10/19 01:13:17;;;;;;;;;;;;;;;;;;5112592;28;19923;-72
2021/10/19 01:15:45;;;;;;;;;;;;;;;;;;5112493;28;19923;-72
2021/10/19 01:18:12;;;;;;;;;;;;;;;;;;5112385;28;19928;-72
2021/10/19 01:20:39;;;;;;;;;;;;;;;;;;5112524;28;19936;-72
2021/10/19 01:23:05;;;;;;;;;;;;;;;;;;5112857;28;19927;-72
2021/10/19 01:25:32;;;;;;;;;;;;;;;;;;5113042;28;19934;-72
2021/10/19 01:27:58;;;;;;;;;;;;;;;;;;5112833;28;19931;-72
2021/10/19 01:30:24;;;;;;;;;;;;;;;;;;5112381;28;19924;-72
2021/10/19 01:32:50;;;;;;;;;;;;;;;;;;5112380;28;19930;-72
2021/10/19 01:35:17;;;;;;;;;;;;;;;;;;5112100;28;19930;-72
2021/10/19 01:37:43;;;;;;;;;;;;;;;;;;5114135;28;19930;-72
2021/10/19 01:40:10;;;;;;;;;;;;;;;;;;5116305;28;19946;-72
2021/10/19 01:42:36;;;;;;;;;;;;;;;;;;5116082;28;19973;-72
2021/10/19 01:45:02;;;;;;;;;;;;;;;;;;5116152;28;19934;-72
2021/10/19 01:47:28;;;;;;;;;;;;;;;;;;5115976;28;19923;-72
2021/10/19 01:49:55;;;;;;;;;;;;;;;;;;5115900;28;19924;-73
2021/10/19 01:52:21;;;;;;;;;;;;;;;;;;5115642;28;19931;-73
2021/10/19 01:54:47;;;;;;;;;;;;;;;;;;5115886;28;19924;-71
2021/10/19 01:57:14;;;;;;;;;;;;;;;;;;5115442;28;19936;-73
2021/10/19 01:59:40;;;;;;;;;;;;;;;;;;5115527;28;19924;-73
2021/10/19 02:02:06;;;;;;;;;;;;;;;;;;5115557;28;20416;-73
2021/10/19 02:04:33;;;;;;;;;;;;;;;;;;5115529;28;19928;-72
2021/10/19 02:06:59;;;;;;;;;;;;;;;;;;5115727;28;19923;-73
2021/10/19 02:09:25;;;;;;;;;;;;;;;;;;5115217;28;20294;-73
2021/10/19 02:11:53;;;;;;;;;;;;;;;;;;5115577;28;19923;-73
2021/10/19 02:14:20;;;;;;;;;;;;;;;;;;5115379;28;20023;-72
2021/10/19 02:16:46;;;;;;;;;;;;;;;;;;5115339;28;20401;-73
2021/10/19 02:19:12;;;;;;;;;;;;;;;;;;5115295;28;19924;-73
2021/10/19 02:21:38;;;;;;;;;;;;;;;;;;5115508;28;19924;-73
2021/10/19 02:24:05;;;;;;;;;;;;;;;;;;5115214;28;19935;-72
2021/10/19 02:26:31;;;;;;;;;;;;;;;;;;5114905;28;19930;-73
2021/10/19 02:28:57;;;;;;;;;;;;;;;;;;5115056;28;20290;-72
2021/10/19 02:31:24;;;;;;;;;;;;;;;;;;5114757;28;19931;-73
2021/10/19 02:33:50;;;;;;;;;;;;;;;;;;5115258;28;19924;-73
2021/10/19 02:36:16;;;;;;;;;;;;;;;;;;5114719;28;19923;-73
2021/10/19 02:38:42;;;;;;;;;;;;;;;;;;5114735;28;19927;-73
2021/10/19 02:41:09;;;;;;;;;;;;;;;;;;5114911;28;19931;-73
2021/10/19 02:43:35;;;;;;;;;;;;;;;;;;5114798;28;19931;-73
2021/10/19 02:46:01;;;;;;;;;;;;;;;;;;5115095;28;19923;-73
2021/10/19 02:48:28;;;;;;;;;;;;;;;;;;5113864;28;20308;-73
2021/10/19 02:50:54;;;;;;;;;;;;;;;;;;5114267;28;19931;-73
2021/10/19 02:53:20;;;;;;;;;;;;;;;;;;5114755;28;19924;-73
2021/10/19 02:55:47;;;;;;;;;;;;;;;;;;5114553;28;20293;-73
2021/10/19 02:58:13;;;;;;;;;;;;;;;;;;5114030;28;19928;-73
2021/10/19 03:00:39;;;;;;;;;;;;;;;;;;5114786;28;19930;-73
2021/10/19 03:03:05;;;;;;;;;;;;;;;;;;5114607;28;19927;-73
2021/10/19 03:05:32;;;;;;;;;;;;;;;;;;5114881;28;19930;-73
2021/10/19 03:07:58;;;;;;;;;;;;;;;;;;5114799;28;19946;-73
2021/10/19 03:10:24;;;;;;;;;;;;;;;;;;5113899;28;19930;-73
2021/10/19 03:12:51;;;;;;;;;;;;;;;;;;5114415;28;19924;-73
2021/10/19 03:15:22;;;;;;;;;;;;;;;;;;5114390;28;19924;-73
2021/10/19 03:17:48;;;;;;;;;;;;;;;;;;5114115;28;20335;-73
2021/10/19 03:20:14;;;;;;;;;;;;;;;;;;5113786;28;19930;-71
2021/10/19 03:22:41;;;;;;;;;;;;;;;;;;5114320;28;19931;-74
2021/10/19 03:25:07;;;;;;;;;;;;;;;;;;5113967;28;19924;-72
2021/10/19 03:27:33;;;;;;;;;;;;;;;;;;5114259;28;19934;-73
2021/10/19 03:30:00;;;;;;;;;;;;;;;;;;5114220;28;19924;-73
2021/10/19 03:32:26;;;;;;;;;;;;;;;;;;5113880;28;19923;-74
2021/10/19 03:34:52;;;;;;;;;;;;;;;;;;5113654;28;19924;-73
2021/10/19 03:37:18;;;;;;;;;;;;;;;;;;5113832;28;19923;-73
2021/10/19 03:39:45;;;;;;;;;;;;;;;;;;5113682;28;20289;-73
2021/10/19 03:42:11;;;;;;;;;;;;;;;;;;5113449;28;19931;-73
2021/10/19 03:44:37;;;;;;;;;;;;;;;;;;5113930;28;19927;-73
2021/10/19 03:47:04;;;;;;;;;;;;;;;;;;5113476;28;19927;-73
2021/10/19 03:49:30;;;;;;;;;;;;;;;;;;5113698;28;19931;-73
2021/10/19 03:51:56;;;;;;;;;;;;;;;;;;5113839;28;19924;-74
2021/10/19 03:54:22;;;;;;;;;;;;;;;;;;5113542;28;19923;-74
2021/10/19 03:56:49;;;;;;;;;;;;;;;;;;5113652;28;19924;-73
2021/10/19 03:59:15;;;;;;;;;;;;;;;;;;5112953;28;20404;-73
2021/10/19 04:01:41;;;;;;;;;;;;;;;;;;5113494;28;19923;-73
2021/10/19 04:04:08;;;;;;;;;;;;;;;;;;5112986;28;20285;-73
2021/10/19 04:06:34;;;;;;;;;;;;;;;;;;5113257;28;19935;-73
2021/10/19 04:09:00;;;;;;;;;;;;;;;;;;5113460;28;19923;-73
2021/10/19 04:11:27;;;;;;;;;;;;;;;;;;5113285;28;19934;-73
2021/10/19 04:13:53;;;;;;;;;;;;;;;;;;5113081;28;19931;-73
2021/10/19 04:16:19;;;;;;;;;;;;;;;;;;5112759;28;19930;-74
2021/10/19 04:18:45;;;;;;;;;;;;;;;;;;5113297;28;19923;-74
2021/10/19 04:21:12;;;;;;;;;;;;;;;;;;5112817;28;20374;-73
2021/10/19 04:23:38;;;;;;;;;;;;;;;;;;5113059;28;19924;-74
2021/10/19 04:26:04;;;;;;;;;;;;;;;;;;5113237;28;19934;-73
2021/10/19 04:28:31;;;;;;;;;;;;;;;;;;5112681;28;20378;-74
2021/10/19 04:30:57;;;;;;;;;;;;;;;;;;5112924;28;19924;-73
2021/10/19 04:33:23;;;;;;;;;;;;;;;;;;5112840;28;19924;-73
2021/10/19 04:35:50;;;;;;;;;;;;;;;;;;5112771;28;20386;-73
2021/10/19 04:38:16;;;;;;;;;;;;;;;;;;5112490;28;19923;-73
2021/10/19 04:40:42;;;;;;;;;;;;;;;;;;5113058;28;19924;-73
2021/10/19 04:43:08;;;;;;;;;;;;;;;;;;5112607;28;20277;-73
2021/10/19 04:45:35;;;;;;;;;;;;;;;;;;5112789;28;19938;-73
2021/10/19 04:48:02;;;;;;;;;;;;;;;;;;5113152;28;19930;-73
2021/10/19 04:50:28;;;;;;;;;;;;;;;;;;5112400;28;19923;-73
2021/10/19 04:52:54;;;;;;;;;;;;;;;;;;5113029;28;19934;-72
2021/10/19 04:55:20;;;;;;;;;;;;;;;;;;5112450;28;20290;-72
2021/10/19 04:57:47;;;;;;;;;;;;;;;;;;5112556;28;19931;-71
2021/10/19 05:00:13;;;;;;;;;;;;;;;;;;5112628;28;19924;-69
2021/10/19 05:02:39;;;;;;;;;;;;;;;;;;5112517;28;20298;-69
2021/10/19 05:05:06;;;;;;;;;;;;;;;;;;5112555;28;19928;-69
2021/10/19 05:07:32;;;;;;;;;;;;;;;;;;5112688;28;19924;-69
2021/10/19 05:09:58;;;;;;;;;;;;;;;;;;5112775;28;19924;-69
2021/10/19 05:12:25;;;;;;;;;;;;;;;;;;5113418;28;19935;-69
2021/10/19 05:14:51;;;;;;;;;;;;;;;;;;5116810;28;19924;-69
2021/10/19 05:17:17;;;;;;;;;;;;;;;;;;5116248;28;20313;-69
2021/10/19 05:19:43;;;;;;;;;;;;;;;;;;5116413;28;19924;-72
2021/10/19 05:22:10;;;;;;;;;;;;;;;;;;5116505;28;19923;-71
2021/10/19 05:24:36;;;;;;;;;;;;;;;;;;5116367;28;19930;-71
2021/10/19 05:27:02;;;;;;;;;;;;;;;;;;5116562;28;19930;-71
2021/10/19 05:29:30;;;;;;;;;;;;;;;;;;5116232;28;19931;-71
2021/10/19 05:31:56;;;;;;;;;;;;;;;;;;5116478;28;19928;-71
2021/10/19 05:34:22;;;;;;;;;;;;;;;;;;5115932;28;19924;-71
2021/10/19 05:36:48;;;;;;;;;;;;;;;;;;5116178;28;19923;-71
2021/10/19 05:39:16;;;;;;;;;;;;;;;;;;5116051;28;19932;-71
2021/10/19 05:41:42;;;;;;;;;;;;;;;;;;5116313;28;20395;-71
2021/10/19 05:44:08;;;;;;;;;;;;;;;;;;5115824;28;20401;-71
2021/10/19 05:46:35;;;;;;;;;;;;;;;;;;5115875;28;19935;-71
2021/10/19 05:49:01;;;;;;;;;;;;;;;;;;5116225;28;19930;-71
2021/10/19 05:51:27;;;;;;;;;;;;;;;;;;5115595;28;19928;-71
2021/10/19 05:53:54;;;;;;;;;;;;;;;;;;5116086;28;19931;-71
2021/10/19 05:56:20;;;;;;;;;;;;;;;;;;5115579;28;20378;-71
2021/10/19 05:58:46;;;;;;;;;;;;;;;;;;5115600;28;19924;-71
2021/10/19 06:01:12;;;;;;;;;;;;;;;;;;5115641;28;19931;-71
2021/10/19 06:03:39;;;;;;;;;;;;;;;;;;5115717;28;19930;-72
2021/10/19 06:06:07;;;;;;;;;;;;;;;;;;5115804;28;19928;-71
2021/10/19 06:08:33;;;;;;;;;;;;;;;;;;5115488;28;19924;-71
2021/10/19 06:11:00;;;;;;;;;;;;;;;;;;5115762;28;19930;-71
2021/10/19 06:13:26;;;;;;;;;;;;;;;;;;5115468;28;20098;-71
2021/10/19 06:15:53;;;;;;;;;;;;;;;;;;5115369;28;19924;-71
2021/10/19 06:18:19;;;;;;;;;;;;;;;;;;5115336;28;19924;-71
2021/10/19 06:20:46;;;;;;;;;;;;;;;;;;5115187;28;19935;-71
2021/10/19 06:23:13;;;;;;;;;;;;;;;;;;5114548;28;19924;-71
2021/10/19 06:25:39;;;;;;;;;;;;;;;;;;5114754;28;19924;-71
2021/10/19 06:28:05;;;;;;;;;;;;;;;;;;5115154;28;20406;-71
2021/10/19 06:30:32;;;;;;;;;;;;;;;;;;5114784;28;19924;-71
2021/10/19 06:32:58;;;;;;;;;;;;;;;;;;5115485;28;19930;-71
2021/10/19 06:35:24;;;;;;;;;;;;;;;;;;5114665;28;20394;-71
2021/10/19 06:37:50;;;;;;;;;;;;;;;;;;5115285;28;19924;-71
2021/10/19 06:40:17;;;;;;;;;;;;;;;;;;5114982;28;19924;-71
2021/10/19 06:42:45;;;;;;;;;;;;;;;;;;5115005;28;19930;-71
2021/10/19 06:45:11;;;;;;;;;;;;;;;;;;5114615;28;19924;-71
2021/10/19 06:47:37;;;;;;;;;;;;;;;;;;5114603;28;19924;-71
2021/10/19 06:50:04;;;;;;;;;;;;;;;;;;5114701;28;19923;-71
2021/10/19 06:52:31;;;;;;;;;;;;;;;;;;5114844;28;19924;-71
2021/10/19 06:54:57;;;;;;;;;;;;;;;;;;5114825;28;19924;-71
2021/10/19 06:57:24;;;;;;;;;;;;;;;;;;5114620;28;19924;-71
2021/10/19 06:59:50;;;;;;;;;;;;;;;;;;5114175;28;20366;-71
2021/10/19 07:02:17;;;;;;;;;;;;;;;;;;5114257;28;19923;-71
2021/10/19 07:04:44;;;;;;;;;;;;;;;;;;5114462;28;20297;-71
2021/10/19 07:07:10;;;;;;;;;;;;;;;;;;5114203;28;19923;-71
2021/10/19 07:09:36;;;;;;;;;;;;;;;;;;5114456;28;19923;-71
2021/10/19 07:12:03;;;;;;;;;;;;;;;;;;5114347;28;19931;-71
2021/10/19 07:14:29;;;;;;;;;;;;;;;;;;5114312;28;19931;-71
2021/10/19 07:16:55;;;;;;;;;;;;;;;;;;5114464;28;19951;-71
2021/10/19 07:19:22;;;;;;;;;;;;;;;;;;5113822;28;19931;-71
2021/10/19 07:21:49;;;;;;;;;;;;;;;;;;5114177;28;19930;-71
2021/10/19 07:24:15;;;;;;;;;;;;;;;;;;5114135;28;19963;-70
2021/10/19 07:26:41;;;;;;;;;;;;;;;;;;5114436;28;19923;-70
2021/10/19 07:29:07;;;;;;;;;;;;;;;;;;5113670;28;19923;-70
2021/10/19 07:31:34;;;;;;;;;;;;;;;;;;5114047;28;19924;-70
2021/10/19 07:34:00;;;;;;;;;;;;;;;;;;5114372;28;19924;-70
2021/10/19 07:36:26;;;;;;;;;;;;;;;;;;5113454;28;19932;-70
2021/10/19 07:38:53;;;;;;;;;;;;;;;;;;5114236;28;20327;-70
2021/10/19 07:41:19;;;;;;;;;;;;;;;;;;5113949;28;19965;-70
2021/10/19 07:43:45;;;;;;;;;;;;;;;;;;5113630;28;19923;-70
2021/10/19 07:46:12;;;;;;;;;;;;;;;;;;5113679;28;19923;-71
2021/10/19 07:48:38;;;;;;;;;;;;;;;;;;5114157;28;20393;-70
2021/10/19 07:51:04;;;;;;;;;;;;;;;;;;5113496;28;19924;-71
2021/10/19 07:53:30;;;;;;;;;;;;;;;;;;5113594;28;19924;-71
2021/10/19 07:55:58;;;;;;;;;;;;;;;;;;5113391;28;20400;-71
2021/10/19 07:58:24;;;;;;;;;;;;;;;;;;5113406;28;19924;-71
2021/10/19 08:00:50;;;;;;;;;;;;;;;;;;5113303;28;19923;-70
2021/10/19 08:03:17;;;;;;;;;;;;;;;;;;5112960;28;19928;-70
2021/10/19 08:05:44;;;;;;;;;;;;;;;;;;5113635;28;19924;-71
2021/10/19 08:08:11;;;;;;;;;;;;;;;;;;5113120;28;19930;-70
2021/10/19 08:10:37;;;;;;;;;;;;;;;;;;5113547;28;19927;-71
2021/10/19 08:13:03;;;;;;;;;;;;;;;;;;5113096;28;20404;-72
2021/10/19 08:15:29;;;;;;;;;;;;;;;;;;5112947;28;20005;-71
2021/10/19 08:17:56;;;;;;;;;;;;;;;;;;5113174;28;19957;-71
2021/10/19 08:20:22;;;;;;;;;;;;;;;;;;5113140;28;20292;-71
2021/10/19 08:22:48;;;;;;;;;;;;;;;;;;5113104;28;19930;-71
2021/10/19 08:25:15;;;;;;;;;;;;;;;;;;5113147;28;19930;-71
2021/10/19 08:27:41;;;;;;;;;;;;;;;;;;5113096;28;20425;-71
2021/10/19 08:30:07;;;;;;;;;;;;;;;;;;5112643;28;19932;-71
2021/10/19 08:32:34;;;;;;;;;;;;;;;;;;5112852;28;19924;-70
2021/10/19 08:35:00;;;;;;;;;;;;;;;;;;5113174;28;20392;-70
2021/10/19 08:37:26;;;;;;;;;;;;;;;;;;5112652;28;19931;-70
2021/10/19 08:39:53;;;;;;;;;;;;;;;;;;5113162;28;19924;-71
2021/10/19 08:42:19;;;;;;;;;;;;;;;;;;5112518;28;20391;-71
2021/10/19 08:44:45;;;;;;;;;;;;;;;;;;5113004;28;19931;-70
2021/10/19 08:47:12;;;;;;;;;;;;;;;;;;5113651;28;19923;-71
2021/10/19 08:49:38;;;;;;;;;;;;;;;;;;5117536;28;20289;-71
2021/10/19 08:52:04;;;;;;;;;;;;;;;;;;5117031;28;19924;-71
2021/10/19 08:54:31;;;;;;;;;;;;;;;;;;5117104;28;19924;-71
2021/10/19 08:56:57;;;;;;;;;;;;;;;;;;5117044;28;20370;-71
2021/10/19 08:59:23;;;;;;;;;;;;;;;;;;5116554;28;19923;-71
2021/10/19 09:01:50;;;;;;;;;;;;;;;;;;5116815;28;19924;-71
2021/10/19 09:04:16;;;;;;;;;;;;;;;;;;5117184;28;19931;-71
2021/10/19 09:06:42;;;;;;;;;;;;;;;;;;5117184;28;20292;-71
2021/10/19 09:09:09;;;;;;;;;;;;;;;;;;5116406;28;19930;-71
2021/10/19 09:11:35;;;;;;;;;;;;;;;;;;5117019;28;19930;-71
2021/10/19 09:14:01;;;;;;;;;;;;;;;;;;5117167;28;20005;-71
2021/10/19 09:16:27;;;;;;;;;;;;;;;;;;5116474;28;19940;-71
2021/10/19 09:18:54;;;;;;;;;;;;;;;;;;5116833;28;19924;-70
2021/10/19 09:21:20;;;;;;;;;;;;;;;;;;5116079;28;20378;-70
2021/10/19 09:23:50;;;;;;;;;;;;;;;;;;5116511;28;19938;-69
2021/10/19 09:26:16;;;;;;;;;;;;;;;;;;5116674;28;19924;-70
2021/10/19 09:28:42;;;;;;;;;;;;;;;;;;5116351;28;20289;-70
2021/10/19 09:31:08;;;;;;;;;;;;;;;;;;5116015;28;19924;-70
2021/10/19 09:33:35;;;;;;;;;;;;;;;;;;5116374;28;19924;-70
2021/10/19 09:36:02;;;;;;;;;;;;;;;;;;5116164;28;20321;-70
2021/10/19 09:38:28;;;;;;;;;;;;;;;;;;5115940;28;20431;-71
2021/10/19 09:40:55;;;;;;;;;;;;;;;;;;5116038;28;19932;-71
2021/10/19 09:43:21;;;;;;;;;;;;;;;;;;5116042;28;19924;-71
2021/10/19 09:45:49;;;;;;;;;;;;;;;;;;5116289;28;19928;-71
2021/10/19 09:48:15;;;;;;;;;;;;;;;;;;5116077;28;19928;-70
2021/10/19 09:50:41;;;;;;;;;;;;;;;;;;5115905;28;20385;-71
2021/10/19 09:53:08;;;;;;;;;;;;;;;;;;5115880;28;19928;-71
2021/10/19 09:55:34;;;;;;;;;;;;;;;;;;5115982;28;19946;-71
2021/10/19 09:58:00;;;;;;;;;;;;;;;;;;5115296;28;19930;-71
2021/10/19 10:00:30;;;;;;;;;;;;;;;;;;5116049;28;19934;-71
2021/10/19 10:02:58;;;;;;;;;;;;;;;;;;5115645;28;19923;-71
2021/10/19 10:05:25;;;;;;;;;;;;;;;;;;5115353;28;19923;-71
2021/10/19 10:07:51;;;;;;;;;;;;;;;;;;5115897;28;19924;-71
2021/10/19 10:10:17;;;;;;;;;;;;;;;;;;5115212;28;19931;-71
2021/10/19 10:12:49;;;;;;;;;;;;;;;;;;5115871;28;19931;-71
2021/10/19 10:15:16;;;;;;;;;;;;;;;;;;5115228;28;20439;-71
2021/10/19 10:17:42;;;;;;;;;;;;;;;;;;5115300;28;19931;-71
2021/10/19 10:20:08;;;;;;;;;;;;;;;;;;5115284;28;19927;-71
2021/10/19 10:22:34;;;;;;;;;;;;;;;;;;5115481;28;19994;-71
2021/10/19 10:25:01;;;;;;;;;;;;;;;;;;5115145;28;19928;-71
2021/10/19 10:27:27;;;;;;;;;;;;;;;;;;5115120;28;19928;-71
2021/10/19 10:29:53;;;;;;;;;;;;;;;;;;5115188;28;20370;-71
2021/10/19 10:32:20;;;;;;;;;;;;;;;;;;5114771;28;19923;-71
2021/10/19 10:34:46;;;;;;;;;;;;;;;;;;5115353;28;19923;-71
2021/10/19 10:37:13;;;;;;;;;;;;;;;;;;5114838;28;20370;-71
2021/10/19 10:39:39;;;;;;;;;;;;;;;;;;5115062;28;20283;-71
2021/10/19 10:42:05;;;;;;;;;;;;;;;;;;5114851;28;19924;-71
2021/10/19 10:44:31;;;;;;;;;;;;;;;;;;5115349;28;19924;-70
2021/10/19 10:46:58;;;;;;;;;;;;;;;;;;5115141;28;20312;-70
2021/10/19 10:49:24;;;;;;;;;;;;;;;;;;5114582;28;19982;-70
2021/10/19 10:51:50;;;;;;;;;;;;;;;;;;5114899;28;19930;-70
2021/10/19 10:54:18;;;;;;;;;;;;;;;;;;5114414;28;20378;-70
2021/10/19 10:56:44;;;;;;;;;;;;;;;;;;5114869;28;19924;-70
2021/10/19 10:59:10;;;;;;;;;;;;;;;;;;5114073;28;20266;-71
2021/10/19 11:01:36;;;;;;;;;;;;;;;;;;5114355;28;19939;-70
2021/10/19 11:04:03;;;;;;;;;;;;;;;;;;5114866;28;19930;-70
2021/10/19 11:06:29;;;;;;;;;;;;;;;;;;5114464;28;19931;-70
2021/10/19 11:08:55;;;;;;;;;;;;;;;;;;5114396;28;20370;-71
2021/10/19 11:11:22;;;;;;;;;;;;;;;;;;5113726;28;19935;-71
2021/10/19 11:13:48;;;;;;;;;;;;;;;;;;5114534;28;19982;-73
2021/10/19 11:16:15;;;;;;;;;;;;;;;;;;5114036;28;19938;-71
2021/10/19 11:18:41;;;;;;;;;;;;;;;;;;5114381;28;19931;-71
2021/10/19 11:21:07;;;;;;;;;;;;;;;;;;5113839;28;20290;-71
2021/10/19 11:23:34;;;;;;;;;;;;;;;;;;5114107;28;19930;-71
2021/10/19 11:26:00;;;;;;;;;;;;;;;;;;5114393;28;20006;-71
2021/10/19 11:28:26;;;;;;;;;;;;;;;;;;5113991;28;20022;-71
2021/10/19 11:30:52;;;;;;;;;;;;;;;;;;5114264;28;20014;-71
2021/10/19 11:33:19;;;;;;;;;;;;;;;;;;5113482;28;19928;-71
2021/10/19 11:35:45;;;;;;;;;;;;;;;;;;5113864;28;19923;-71
2021/10/19 11:38:11;;;;;;;;;;;;;;;;;;5113974;28;19931;-71
2021/10/19 11:40:38;;;;;;;;;;;;;;;;;;5113693;28;20382;-71
2021/10/19 11:43:04;;;;;;;;;;;;;;;;;;5113721;28;19924;-71
2021/10/19 11:45:30;;;;;;;;;;;;;;;;;;5113747;28;19928;-71
2021/10/19 11:47:57;;;;;;;;;;;;;;;;;;5113545;28;19927;-70
2021/10/19 11:50:23;;;;;;;;;;;;;;;;;;5113661;28;19924;-71
2021/10/19 11:52:49;;;;;;;;;;;;;;;;;;5113397;28;20406;-70
2021/10/19 11:55:16;;;;;;;;;;;;;;;;;;5113233;28;19923;-71
2021/10/19 11:57:42;;;;;;;;;;;;;;;;;;5113542;28;19924;-71
2021/10/19 12:00:08;;;;;;;;;;;;;;;;;;5113131;28;20378;-72
2021/10/19 12:02:35;;;;;;;;;;;;;;;;;;5113359;28;19931;-72
2021/10/19 12:05:01;;;;;;;;;;;;;;;;;;5113646;28;19946;-71
2021/10/19 12:07:28;;;;;;;;;;;;;;;;;;5113183;28;19928;-72
2021/10/19 12:09:54;;;;;;;;;;;;;;;;;;5113149;28;19924;-72
2021/10/19 12:12:21;;;;;;;;;;;;;;;;;;5113283;28;19924;-71
2021/10/19 12:14:47;;;;;;;;;;;;;;;;;;5113427;28;19938;-72
2021/10/19 12:17:13;;;;;;;;;;;;;;;;;;5112797;28;19924;-71
2021/10/19 12:19:40;;;;;;;;;;;;;;;;;;5113091;28;19934;-71
2021/10/19 12:22:06;;;;;;;;;;;;;;;;;;5113299;28;19935;-71
2021/10/19 12:24:32;;;;;;;;;;;;;;;;;;5113035;28;19923;-71
2021/10/19 12:26:59;;;;;;;;;;;;;;;;;;5113189;28;19925;-71
2021/10/19 12:29:25;;;;;;;;;;;;;;;;;;5113074;28;19940;-72
2021/10/19 12:31:51;;;;;;;;;;;;;;;;;;5113211;28;19946;-72
2021/10/19 12:34:18;;;;;;;;;;;;;;;;;;5112900;28;19931;-72
2021/10/19 12:36:46;;;;;;;;;;;;;;;;;;5112681;28;19924;-72
2021/10/19 12:39:14;;;;;;;;;;;;;;;;;;5112949;28;19923;-73
2021/10/19 12:41:40;;;;;;;;;;;;;;;;;;5113063;28;19928;-72
2021/10/19 12:44:06;;;;;;;;;;;;;;;;;;5113028;28;20030;-72
2021/10/19 12:46:33;;;;;;;;;;;;;;;;;;5112778;28;20298;-72
2021/10/19 12:49:02;;;;;;;;;;;;;;;;;;5113117;28;19935;-72
2021/10/19 12:51:28;;;;;;;;;;;;;;;;;;5113715;28;19931;-72
2021/10/19 12:53:55;;;;;;;;;;;;;;;;;;5113629;28;19924;-72
2021/10/19 12:56:21;;;;;;;;;;;;;;;;;;5112540;28;20373;-72
2021/10/19 12:58:48;;;;;;;;;;;;;;;;;;5113018;28;19972;-72
2021/10/19 13:01:15;;;;;;;;;;;;;;;;;;5112588;28;19924;-72
2021/10/19 13:03:41;;;;;;;;;;;;;;;;;;5112713;28;19924;-72
2021/10/19 13:06:08;;;;;;;;;;;;;;;;;;5112582;28;19930;-72
2021/10/19 13:08:34;;;;;;;;;;;;;;;;;;5112691;28;20385;-73
2021/10/19 13:11:00;;;;;;;;;;;;;;;;;;5112430;28;19928;-72
2021/10/19 13:13:27;;;;;;;;;;;;;;;;;;5112554;28;19928;-72
2021/10/19 13:15:53;;;;;;;;;;;;;;;;;;5112773;28;19924;-72
2021/10/19 13:18:19;;;;;;;;;;;;;;;;;;5112152;28;19931;-72
2021/10/19 13:20:45;;;;;;;;;;;;;;;;;;5112525;28;19924;-72
2021/10/19 13:23:12;;;;;;;;;;;;;;;;;;5112077;28;20420;-72
2021/10/19 13:25:38;;;;;;;;;;;;;;;;;;5112396;28;19924;-72
2021/10/19 13:28:04;;;;;;;;;;;;;;;;;;5112881;28;19924;-72
2021/10/19 13:30:31;;;;;;;;;;;;;;;;;;5112030;28;20378;-72
2021/10/19 13:32:58;;;;;;;;;;;;;;;;;;5112485;28;20418;-72
2021/10/19 13:35:25;;;;;;;;;;;;;;;;;;5115834;28;19927;-72
2021/10/19 13:37:51;;;;;;;;;;;;;;;;;;5116397;28;19932;-72
2021/10/19 13:40:17;;;;;;;;;;;;;;;;;;5116168;28;20399;-72
2021/10/19 13:42:43;;;;;;;;;;;;;;;;;;5115896;28;19924;-72
2021/10/19 13:45:10;;;;;;;;;;;;;;;;;;5115933;28;19924;-72
2021/10/19 13:47:36;;;;;;;;;;;;;;;;;;5116252;28;19969;-72
2021/10/19 13:50:04;;;;;;;;;;;;;;;;;;5116015;28;19931;-72
2021/10/19 13:52:30;;;;;;;;;;;;;;;;;;5116082;28;19924;-72
2021/10/19 13:54:56;;;;;;;;;;;;;;;;;;5115754;28;20343;-72
2021/10/19 13:57:23;;;;;;;;;;;;;;;;;;5115582;28;19930;-72
2021/10/19 13:59:49;;;;;;;;;;;;;;;;;;5115614;28;19923;-72
2021/10/19 14:02:15;;;;;;;;;;;;;;;;;;5115214;28;19924;-72
2021/10/19 14:04:42;;;;;;;;;;;;;;;;;;5115870;28;19931;-72
2021/10/19 14:07:08;;;;;;;;;;;;;;;;;;5115664;28;19924;-72
2021/10/19 14:09:34;;;;;;;;;;;;;;;;;;5115713;28;20397;-72
2021/10/19 14:12:01;;;;;;;;;;;;;;;;;;5115423;28;19930;-72
2021/10/19 14:14:28;;;;;;;;;;;;;;;;;;5115166;28;19927;-72
2021/10/19 14:16:54;;;;;;;;;;;;;;;;;;5115729;28;19927;-70
2021/10/19 14:19:20;;;;;;;;;;;;;;;;;;5115144;28;20374;-72
2021/10/19 14:21:46;;;;;;;;;;;;;;;;;;5115179;28;19924;-73
2021/10/19 14:24:13;;;;;;;;;;;;;;;;;;5115409;28;19923;-73
2021/10/19 14:26:39;;;;;;;;;;;;;;;;;;5115301;28;19923;-73
2021/10/19 14:29:06;;;;;;;;;;;;;;;;;;5115193;28;20378;-73
2021/10/19 14:31:32;;;;;;;;;;;;;;;;;;5115075;28;19927;-73
2021/10/19 14:33:58;;;;;;;;;;;;;;;;;;5115227;28;19930;-72
2021/10/19 14:36:24;;;;;;;;;;;;;;;;;;5115072;28;20296;-70
2021/10/19 14:38:51;;;;;;;;;;;;;;;;;;5115039;28;19924;-69
2021/10/19 14:41:17;;;;;;;;;;;;;;;;;;5114754;28;19935;-67
2021/10/19 14:43:43;;;;;;;;;;;;;;;;;;5115264;28;19923;-68
2021/10/19 14:46:10;;;;;;;;;;;;;;;;;;5113764;28;19931;-67
2021/10/19 14:48:36;;;;;;;;;;;;;;;;;;5115101;28;19924;-68
2021/10/19 14:51:02;;;;;;;;;;;;;;;;;;5114719;28;19928;-68
2021/10/19 14:53:28;;;;;;;;;;;;;;;;;;5114684;28;19931;-66
2021/10/19 14:55:55;;;;;;;;;;;;;;;;;;5114947;28;19924;-68
2021/10/19 14:58:21;;;;;;;;;;;;;;;;;;5114214;28;19924;-67
2021/10/19 15:00:47;;;;;;;;;;;;;;;;;;5114824;28;19930;-68
2021/10/19 15:03:14;;;;;;;;;;;;;;;;;;5114400;28;19924;-68
2021/10/19 15:05:40;;;;;;;;;;;;;;;;;;5114370;28;19931;-68
2021/10/19 15:08:06;;;;;;;;;;;;;;;;;;5114283;28;19927;-68
2021/10/19 15:10:34;;;;;;;;;;;;;;;;;;5113690;28;20297;-68
2021/10/19 15:13:01;;;;;;;;;;;;;;;;;;5114232;28;19924;-70
2021/10/19 15:15:27;;;;;;;;;;;;;;;;;;5112348;28;20017;-67
2021/10/19 15:17:53;;;;;;;;;;;;;;;;;;5113257;28;19936;-68
2021/10/19 15:20:20;;;;;;;;;;;;;;;;;;5114184;28;19923;-67
2021/10/19 15:22:46;;;;;;;;;;;;;;;;;;5114106;28;19924;-67
2021/10/19 15:25:12;;;;;;;;;;;;;;;;;;5113824;28;19942;-67
2021/10/19 15:27:42;;;;;;;;;;;;;;;;;;5114280;28;19931;-67
2021/10/19 15:30:08;;;;;;;;;;;;;;;;;;5114011;28;19924;-67
2021/10/19 15:32:35;;;;;;;;;;;;;;;;;;5113963;28;20290;-67
2021/10/19 15:35:02;;;;;;;;;;;;;;;;;;5113873;28;19982;-67
2021/10/19 15:37:29;;;;;;;;;;;;;;;;;;5113809;28;20305;-67
2021/10/19 15:39:55;;;;;;;;;;;;;;;;;;5113908;28;19931;-68
2021/10/19 15:42:22;;;;;;;;;;;;;;;;;;5113705;28;19924;-68
2021/10/19 15:44:48;;;;;;;;;;;;;;;;;;5113656;28;20289;-68
2021/10/19 15:47:14;;;;;;;;;;;;;;;;;;5113354;28;19927;-68
2021/10/19 15:49:41;;;;;;;;;;;;;;;;;;5113747;28;19931;-69
2021/10/19 15:52:07;;;;;;;;;;;;;;;;;;5113315;28;20277;-68
2021/10/19 15:54:33;;;;;;;;;;;;;;;;;;5113494;28;19934;-68
2021/10/19 15:57:01;;;;;;;;;;;;;;;;;;5113077;28;20030;-68
2021/10/19 15:59:29;;;;;;;;;;;;;;;;;;5113184;28;19939;-68
2021/10/19 16:01:56;;;;;;;;;;;;;;;;;;5113318;28;20026;-68
2021/10/19 16:04:22;;;;;;;;;;;;;;;;;;5113005;28;19930;-68
2021/10/19 16:06:48;;;;;;;;;;;;;;;;;;5113541;28;19931;-68
2021/10/19 16:09:15;;;;;;;;;;;;;;;;;;5113431;28;19928;-69
2021/10/19 16:11:41;;;;;;;;;;;;;;;;;;5113251;28;20302;-68
2021/10/19 16:14:08;;;;;;;;;;;;;;;;;;5112891;28;19928;-69
2021/10/19 16:16:34;;;;;;;;;;;;;;;;;;5113254;28;19970;-68
2021/10/19 16:19:01;;;;;;;;;;;;;;;;;;5113432;28;19924;-68
2021/10/19 16:21:27;;;;;;;;;;;;;;;;;;5113112;28;19963;-68
2021/10/19 16:23:53;;;;;;;;;;;;;;;;;;5113265;28;20369;-68
2021/10/19 16:26:23;;;;;;;;;;;;;;;;;;5112722;28;19931;-68
2021/10/19 16:28:49;;;;;;;;;;;;;;;;;;5113007;28;20444;-68
2021/10/19 16:31:16;;;;;;;;;;;;;;;;;;5112654;28;19931;-68
2021/10/19 16:33:43;;;;;;;;;;;;;;;;;;5112865;28;19924;-68
2021/10/19 16:36:09;;;;;;;;;;;;;;;;;;5112963;28;19923;-68
2021/10/19 16:38:35;;;;;;;;;;;;;;;;;;5113137;28;20010;-68